sensor_id;sensor_type;location;lat;lon;timestamp;P1;durP1;ratioP1;P2;durP2;ratioP2
39814;SDS011;25495;45.948;4.568;2022-07-23T00:01:33;8.35;;;5.45;;
39814;SDS011;25495;45.948;4.568;2022-07-23T00:04:00;10.80;;;6.00;;
39814;SDS011;25495;45.948;4.568;2022-07-23T00:06:25;8.38;;;5.45;;
39814;SDS011;25495;45.948;4.568;2022-07-23T00:08:52;7.65;;;5.57;;
39814;SDS011;25495;45.948;4.568;2022-07-23T00:11:18;7.85;;;5.05;;
39814;SDS011;25495;45.948;4.568;2022-07-23T00:13:44;7.95;;;5.82;;
39814;SDS011;25495;45.948;4.568;2022-07-23T00:16:10;7.32;;;5.13;;
39814;SDS011;25495;45.948;4.568;2022-07-23T00:18:36;8.10;;;5.50;;
39814;SDS011;25495;45.948;4.568;2022-07-23T00:21:02;9.25;;;5.90;;
39814;SDS011;25495;45.948;4.568;2022-07-23T00:23:28;10.50;;;5.75;;
39814;SDS011;25495;45.948;4.568;2022-07-23T00:25:54;7.82;;;5.40;;
39814;SDS011;25495;45.948;4.568;2022-07-23T00:28:20;8.02;;;5.38;;
39814;SDS011;25495;45.948;4.568;2022-07-23T00:30:46;7.38;;;5.40;;
39814;SDS011;25495;45.948;4.568;2022-07-23T00:33:12;10.07;;;5.07;;
39814;SDS011;25495;45.948;4.568;2022-07-23T00:35:39;8.07;;;5.43;;
39814;SDS011;25495;45.948;4.568;2022-07-23T00:38:06;6.13;;;4.72;;
39814;SDS011;25495;45.948;4.568;2022-07-23T00:40:34;6.93;;;5.55;;
39814;SDS011;25495;45.948;4.568;2022-07-23T00:43:00;10.63;;;5.70;;
39814;SDS011;25495;45.948;4.568;2022-07-23T00:45:26;6.55;;;5.32;;
39814;SDS011;25495;45.948;4.568;2022-07-23T00:47:53;8.30;;;5.57;;
39814;SDS011;25495;45.948;4.568;2022-07-23T00:50:18;8.35;;;5.65;;
39814;SDS011;25495;45.948;4.568;2022-07-23T00:52:44;10.13;;;5.43;;
39814;SDS011;25495;45.948;4.568;2022-07-23T00:55:11;6.47;;;5.10;;
39814;SDS011;25495;45.948;4.568;2022-07-23T00:57:38;6.55;;;4.55;;
39814;SDS011;25495;45.948;4.568;2022-07-23T01:00:06;8.60;;;5.50;;
39814;SDS011;25495;45.948;4.568;2022-07-23T01:02:34;8.15;;;5.10;;
39814;SDS011;25495;45.948;4.568;2022-07-23T01:05:00;8.63;;;5.40;;
39814;SDS011;25495;45.948;4.568;2022-07-23T01:07:26;7.18;;;5.25;;
39814;SDS011;25495;45.948;4.568;2022-07-23T01:09:53;9.23;;;5.15;;
39814;SDS011;25495;45.948;4.568;2022-07-23T01:12:20;7.03;;;5.07;;
39814;SDS011;25495;45.948;4.568;2022-07-23T01:14:53;8.98;;;5.90;;
39814;SDS011;25495;45.948;4.568;2022-07-23T01:17:19;8.45;;;5.07;;
39814;SDS011;25495;45.948;4.568;2022-07-23T01:19:45;7.00;;;4.85;;
39814;SDS011;25495;45.948;4.568;2022-07-23T01:22:11;7.40;;;4.50;;
39814;SDS011;25495;45.948;4.568;2022-07-23T01:24:38;7.18;;;5.20;;
39814;SDS011;25495;45.948;4.568;2022-07-23T01:27:04;8.18;;;4.97;;
39814;SDS011;25495;45.948;4.568;2022-07-23T01:29:30;6.10;;;4.75;;
39814;SDS011;25495;45.948;4.568;2022-07-23T01:31:56;8.40;;;4.57;;
39814;SDS011;25495;45.948;4.568;2022-07-23T01:34:22;7.82;;;4.93;;
39814;SDS011;25495;45.948;4.568;2022-07-23T01:36:47;8.73;;;5.15;;
39814;SDS011;25495;45.948;4.568;2022-07-23T01:39:13;7.35;;;5.50;;
39814;SDS011;25495;45.948;4.568;2022-07-23T01:41:39;11.70;;;5.30;;
39814;SDS011;25495;45.948;4.568;2022-07-23T01:44:05;7.35;;;5.03;;
39814;SDS011;25495;45.948;4.568;2022-07-23T01:46:31;7.20;;;4.78;;
39814;SDS011;25495;45.948;4.568;2022-07-23T01:48:57;9.95;;;5.40;;
39814;SDS011;25495;45.948;4.568;2022-07-23T01:51:23;9.02;;;5.35;;
39814;SDS011;25495;45.948;4.568;2022-07-23T01:53:48;7.60;;;5.35;;
39814;SDS011;25495;45.948;4.568;2022-07-23T01:56:14;8.57;;;5.10;;
39814;SDS011;25495;45.948;4.568;2022-07-23T01:58:40;7.57;;;4.68;;
39814;SDS011;25495;45.948;4.568;2022-07-23T02:01:06;9.38;;;5.47;;
39814;SDS011;25495;45.948;4.568;2022-07-23T02:03:32;7.80;;;5.35;;
39814;SDS011;25495;45.948;4.568;2022-07-23T02:05:57;9.75;;;6.30;;
39814;SDS011;25495;45.948;4.568;2022-07-23T02:08:23;8.52;;;5.15;;
39814;SDS011;25495;45.948;4.568;2022-07-23T02:10:49;6.57;;;5.38;;
39814;SDS011;25495;45.948;4.568;2022-07-23T02:13:16;12.30;;;5.80;;
39814;SDS011;25495;45.948;4.568;2022-07-23T02:15:42;8.13;;;5.13;;
39814;SDS011;25495;45.948;4.568;2022-07-23T02:18:08;8.57;;;4.78;;
39814;SDS011;25495;45.948;4.568;2022-07-23T02:20:34;6.68;;;5.47;;
39814;SDS011;25495;45.948;4.568;2022-07-23T02:23:00;7.22;;;5.60;;
39814;SDS011;25495;45.948;4.568;2022-07-23T02:25:25;9.73;;;5.32;;
39814;SDS011;25495;45.948;4.568;2022-07-23T02:27:51;10.00;;;5.68;;
39814;SDS011;25495;45.948;4.568;2022-07-23T02:30:17;7.95;;;5.15;;
39814;SDS011;25495;45.948;4.568;2022-07-23T02:32:43;9.32;;;5.78;;
39814;SDS011;25495;45.948;4.568;2022-07-23T02:35:08;7.03;;;5.15;;
39814;SDS011;25495;45.948;4.568;2022-07-23T02:37:34;13.43;;;6.05;;
39814;SDS011;25495;45.948;4.568;2022-07-23T02:40:00;10.55;;;5.60;;
39814;SDS011;25495;45.948;4.568;2022-07-23T02:42:25;8.20;;;5.75;;
39814;SDS011;25495;45.948;4.568;2022-07-23T02:44:51;8.77;;;6.10;;
39814;SDS011;25495;45.948;4.568;2022-07-23T02:47:17;8.73;;;5.60;;
39814;SDS011;25495;45.948;4.568;2022-07-23T02:49:43;8.93;;;5.07;;
39814;SDS011;25495;45.948;4.568;2022-07-23T02:52:09;10.48;;;5.78;;
39814;SDS011;25495;45.948;4.568;2022-07-23T02:54:37;11.25;;;6.53;;
39814;SDS011;25495;45.948;4.568;2022-07-23T02:57:04;10.85;;;7.13;;
39814;SDS011;25495;45.948;4.568;2022-07-23T02:59:30;12.27;;;6.68;;
39814;SDS011;25495;45.948;4.568;2022-07-23T03:01:56;9.23;;;6.50;;
39814;SDS011;25495;45.948;4.568;2022-07-23T03:04:21;8.50;;;5.75;;
39814;SDS011;25495;45.948;4.568;2022-07-23T03:06:47;9.52;;;6.38;;
39814;SDS011;25495;45.948;4.568;2022-07-23T03:09:13;10.52;;;6.15;;
39814;SDS011;25495;45.948;4.568;2022-07-23T03:11:39;9.43;;;6.40;;
39814;SDS011;25495;45.948;4.568;2022-07-23T03:14:04;11.15;;;6.38;;
39814;SDS011;25495;45.948;4.568;2022-07-23T03:16:31;8.48;;;5.95;;
39814;SDS011;25495;45.948;4.568;2022-07-23T03:18:57;8.55;;;5.72;;
39814;SDS011;25495;45.948;4.568;2022-07-23T03:21:23;8.55;;;6.38;;
39814;SDS011;25495;45.948;4.568;2022-07-23T03:23:48;8.90;;;6.15;;
39814;SDS011;25495;45.948;4.568;2022-07-23T03:26:14;9.68;;;5.22;;
39814;SDS011;25495;45.948;4.568;2022-07-23T03:28:40;8.77;;;6.45;;
39814;SDS011;25495;45.948;4.568;2022-07-23T03:31:06;11.10;;;6.25;;
39814;SDS011;25495;45.948;4.568;2022-07-23T03:33:32;9.93;;;6.25;;
39814;SDS011;25495;45.948;4.568;2022-07-23T03:35:57;8.77;;;6.30;;
39814;SDS011;25495;45.948;4.568;2022-07-23T03:38:23;11.57;;;6.43;;
39814;SDS011;25495;45.948;4.568;2022-07-23T03:40:49;7.97;;;5.82;;
39814;SDS011;25495;45.948;4.568;2022-07-23T03:43:15;9.07;;;5.97;;
39814;SDS011;25495;45.948;4.568;2022-07-23T03:45:40;10.00;;;5.65;;
39814;SDS011;25495;45.948;4.568;2022-07-23T03:48:06;7.18;;;5.50;;
39814;SDS011;25495;45.948;4.568;2022-07-23T03:50:32;8.85;;;6.10;;
39814;SDS011;25495;45.948;4.568;2022-07-23T03:52:59;12.80;;;5.63;;
39814;SDS011;25495;45.948;4.568;2022-07-23T03:55:25;8.00;;;6.05;;
39814;SDS011;25495;45.948;4.568;2022-07-23T03:57:51;8.63;;;5.97;;
39814;SDS011;25495;45.948;4.568;2022-07-23T04:00:17;8.40;;;5.53;;
39814;SDS011;25495;45.948;4.568;2022-07-23T04:02:42;9.02;;;5.90;;
39814;SDS011;25495;45.948;4.568;2022-07-23T04:05:08;8.90;;;6.00;;
39814;SDS011;25495;45.948;4.568;2022-07-23T04:07:34;6.70;;;5.20;;
39814;SDS011;25495;45.948;4.568;2022-07-23T04:10:00;10.13;;;5.38;;
39814;SDS011;25495;45.948;4.568;2022-07-23T04:12:26;7.75;;;5.90;;
39814;SDS011;25495;45.948;4.568;2022-07-23T04:14:52;9.38;;;5.75;;
39814;SDS011;25495;45.948;4.568;2022-07-23T04:17:17;8.02;;;5.28;;
39814;SDS011;25495;45.948;4.568;2022-07-23T04:19:43;8.27;;;5.70;;
39814;SDS011;25495;45.948;4.568;2022-07-23T04:22:09;6.35;;;4.65;;
39814;SDS011;25495;45.948;4.568;2022-07-23T04:24:36;8.63;;;5.13;;
39814;SDS011;25495;45.948;4.568;2022-07-23T04:27:02;7.32;;;5.13;;
39814;SDS011;25495;45.948;4.568;2022-07-23T04:29:28;8.50;;;4.50;;
39814;SDS011;25495;45.948;4.568;2022-07-23T04:31:54;10.48;;;5.15;;
39814;SDS011;25495;45.948;4.568;2022-07-23T04:34:20;6.93;;;5.05;;
39814;SDS011;25495;45.948;4.568;2022-07-23T04:36:46;7.95;;;5.15;;
39814;SDS011;25495;45.948;4.568;2022-07-23T04:39:12;8.98;;;5.05;;
39814;SDS011;25495;45.948;4.568;2022-07-23T04:41:38;7.18;;;4.50;;
39814;SDS011;25495;45.948;4.568;2022-07-23T04:44:04;8.02;;;5.13;;
39814;SDS011;25495;45.948;4.568;2022-07-23T04:46:30;9.52;;;4.88;;
39814;SDS011;25495;45.948;4.568;2022-07-23T04:48:56;8.98;;;4.68;;
39814;SDS011;25495;45.948;4.568;2022-07-23T04:51:21;7.22;;;4.80;;
39814;SDS011;25495;45.948;4.568;2022-07-23T04:53:47;6.30;;;4.60;;
39814;SDS011;25495;45.948;4.568;2022-07-23T04:56:13;5.78;;;4.65;;
39814;SDS011;25495;45.948;4.568;2022-07-23T04:58:39;6.00;;;4.20;;
39814;SDS011;25495;45.948;4.568;2022-07-23T05:01:05;7.43;;;4.00;;
39814;SDS011;25495;45.948;4.568;2022-07-23T05:03:31;7.07;;;4.38;;
39814;SDS011;25495;45.948;4.568;2022-07-23T05:05:56;7.13;;;4.70;;
39814;SDS011;25495;45.948;4.568;2022-07-23T05:08:22;6.78;;;4.45;;
39814;SDS011;25495;45.948;4.568;2022-07-23T05:10:48;6.82;;;4.53;;
39814;SDS011;25495;45.948;4.568;2022-07-23T05:13:14;8.15;;;4.97;;
39814;SDS011;25495;45.948;4.568;2022-07-23T05:15:41;7.10;;;4.43;;
39814;SDS011;25495;45.948;4.568;2022-07-23T05:18:07;8.25;;;4.88;;
39814;SDS011;25495;45.948;4.568;2022-07-23T05:20:33;6.47;;;4.38;;
39814;SDS011;25495;45.948;4.568;2022-07-23T05:22:59;7.60;;;4.47;;
39814;SDS011;25495;45.948;4.568;2022-07-23T05:25:25;7.00;;;4.50;;
39814;SDS011;25495;45.948;4.568;2022-07-23T05:27:50;10.20;;;5.50;;
39814;SDS011;25495;45.948;4.568;2022-07-23T05:30:16;8.95;;;5.20;;
39814;SDS011;25495;45.948;4.568;2022-07-23T05:32:42;5.35;;;3.80;;
39814;SDS011;25495;45.948;4.568;2022-07-23T05:35:08;6.90;;;5.45;;
39814;SDS011;25495;45.948;4.568;2022-07-23T05:37:34;6.97;;;4.80;;
39814;SDS011;25495;45.948;4.568;2022-07-23T05:40:03;6.95;;;4.35;;
39814;SDS011;25495;45.948;4.568;2022-07-23T05:42:32;11.48;;;4.63;;
39814;SDS011;25495;45.948;4.568;2022-07-23T05:44:58;7.50;;;5.13;;
39814;SDS011;25495;45.948;4.568;2022-07-23T05:47:24;8.13;;;4.65;;
39814;SDS011;25495;45.948;4.568;2022-07-23T05:49:50;8.90;;;5.32;;
39814;SDS011;25495;45.948;4.568;2022-07-23T05:52:16;7.03;;;4.75;;
39814;SDS011;25495;45.948;4.568;2022-07-23T05:54:41;5.40;;;4.28;;
39814;SDS011;25495;45.948;4.568;2022-07-23T05:57:07;7.43;;;4.60;;
39814;SDS011;25495;45.948;4.568;2022-07-23T05:59:33;10.30;;;5.43;;
39814;SDS011;25495;45.948;4.568;2022-07-23T06:01:59;9.18;;;4.93;;
39814;SDS011;25495;45.948;4.568;2022-07-23T06:04:25;7.03;;;5.15;;
39814;SDS011;25495;45.948;4.568;2022-07-23T06:06:50;8.15;;;5.10;;
39814;SDS011;25495;45.948;4.568;2022-07-23T06:09:16;6.13;;;4.65;;
39814;SDS011;25495;45.948;4.568;2022-07-23T06:11:43;8.40;;;4.82;;
39814;SDS011;25495;45.948;4.568;2022-07-23T06:14:09;8.10;;;4.78;;
39814;SDS011;25495;45.948;4.568;2022-07-23T06:16:34;8.80;;;5.53;;
39814;SDS011;25495;45.948;4.568;2022-07-23T06:19:00;10.75;;;5.55;;
39814;SDS011;25495;45.948;4.568;2022-07-23T06:21:26;11.20;;;5.22;;
39814;SDS011;25495;45.948;4.568;2022-07-23T06:23:52;7.63;;;4.97;;
39814;SDS011;25495;45.948;4.568;2022-07-23T06:26:17;9.10;;;5.05;;
39814;SDS011;25495;45.948;4.568;2022-07-23T06:28:43;8.07;;;5.00;;
39814;SDS011;25495;45.948;4.568;2022-07-23T06:31:09;10.57;;;5.32;;
39814;SDS011;25495;45.948;4.568;2022-07-23T06:33:34;8.75;;;5.22;;
39814;SDS011;25495;45.948;4.568;2022-07-23T06:36:00;7.30;;;5.13;;
39814;SDS011;25495;45.948;4.568;2022-07-23T06:38:26;9.55;;;5.03;;
39814;SDS011;25495;45.948;4.568;2022-07-23T06:40:52;10.60;;;5.70;;
39814;SDS011;25495;45.948;4.568;2022-07-23T06:43:17;8.52;;;5.22;;
39814;SDS011;25495;45.948;4.568;2022-07-23T06:45:43;7.50;;;4.97;;
39814;SDS011;25495;45.948;4.568;2022-07-23T06:48:09;7.20;;;5.60;;
39814;SDS011;25495;45.948;4.568;2022-07-23T06:50:35;8.85;;;5.20;;
39814;SDS011;25495;45.948;4.568;2022-07-23T06:53:00;8.88;;;5.82;;
39814;SDS011;25495;45.948;4.568;2022-07-23T06:55:26;8.50;;;5.15;;
39814;SDS011;25495;45.948;4.568;2022-07-23T06:57:52;7.63;;;5.50;;
39814;SDS011;25495;45.948;4.568;2022-07-23T07:00:18;10.10;;;4.93;;
39814;SDS011;25495;45.948;4.568;2022-07-23T07:02:43;6.07;;;4.72;;
39814;SDS011;25495;45.948;4.568;2022-07-23T07:05:09;7.13;;;4.88;;
39814;SDS011;25495;45.948;4.568;2022-07-23T07:07:35;10.88;;;5.10;;
39814;SDS011;25495;45.948;4.568;2022-07-23T07:10:02;9.23;;;5.80;;
39814;SDS011;25495;45.948;4.568;2022-07-23T07:12:28;8.02;;;4.72;;
39814;SDS011;25495;45.948;4.568;2022-07-23T07:14:54;7.78;;;5.07;;
39814;SDS011;25495;45.948;4.568;2022-07-23T07:17:20;7.43;;;4.93;;
39814;SDS011;25495;45.948;4.568;2022-07-23T07:19:45;8.48;;;5.00;;
39814;SDS011;25495;45.948;4.568;2022-07-23T07:22:11;6.95;;;5.30;;
39814;SDS011;25495;45.948;4.568;2022-07-23T07:24:37;11.35;;;5.15;;
39814;SDS011;25495;45.948;4.568;2022-07-23T07:27:03;7.88;;;4.88;;
39814;SDS011;25495;45.948;4.568;2022-07-23T07:29:28;7.78;;;5.30;;
39814;SDS011;25495;45.948;4.568;2022-07-23T07:31:54;5.97;;;4.47;;
39814;SDS011;25495;45.948;4.568;2022-07-23T07:34:20;7.47;;;5.13;;
39814;SDS011;25495;45.948;4.568;2022-07-23T07:36:46;6.93;;;4.53;;
39814;SDS011;25495;45.948;4.568;2022-07-23T07:39:11;8.77;;;5.60;;
39814;SDS011;25495;45.948;4.568;2022-07-23T07:41:37;6.30;;;4.88;;
39814;SDS011;25495;45.948;4.568;2022-07-23T07:44:03;7.53;;;4.93;;
39814;SDS011;25495;45.948;4.568;2022-07-23T07:46:29;10.80;;;5.47;;
39814;SDS011;25495;45.948;4.568;2022-07-23T07:48:55;8.00;;;5.07;;
39814;SDS011;25495;45.948;4.568;2022-07-23T07:51:21;11.40;;;5.85;;
39814;SDS011;25495;45.948;4.568;2022-07-23T07:53:47;6.63;;;5.10;;
39814;SDS011;25495;45.948;4.568;2022-07-23T07:56:12;7.20;;;5.05;;
39814;SDS011;25495;45.948;4.568;2022-07-23T07:58:38;7.05;;;4.80;;
39814;SDS011;25495;45.948;4.568;2022-07-23T08:01:04;7.57;;;4.80;;
39814;SDS011;25495;45.948;4.568;2022-07-23T08:03:30;7.65;;;5.50;;
39814;SDS011;25495;45.948;4.568;2022-07-23T08:05:56;10.15;;;5.25;;
39814;SDS011;25495;45.948;4.568;2022-07-23T08:08:21;10.35;;;5.22;;
39814;SDS011;25495;45.948;4.568;2022-07-23T08:10:47;11.90;;;5.30;;
39814;SDS011;25495;45.948;4.568;2022-07-23T08:13:14;7.07;;;5.22;;
39814;SDS011;25495;45.948;4.568;2022-07-23T08:15:40;8.07;;;5.70;;
39814;SDS011;25495;45.948;4.568;2022-07-23T08:18:07;8.52;;;5.57;;
39814;SDS011;25495;45.948;4.568;2022-07-23T08:20:33;8.13;;;5.78;;
39814;SDS011;25495;45.948;4.568;2022-07-23T08:22:59;8.27;;;5.35;;
39814;SDS011;25495;45.948;4.568;2022-07-23T08:25:31;9.43;;;5.60;;
39814;SDS011;25495;45.948;4.568;2022-07-23T08:27:57;10.00;;;5.22;;
39814;SDS011;25495;45.948;4.568;2022-07-23T08:30:24;7.88;;;5.38;;
39814;SDS011;25495;45.948;4.568;2022-07-23T08:32:54;8.55;;;4.93;;
39814;SDS011;25495;45.948;4.568;2022-07-23T08:37:56;9.80;;;5.18;;
39814;SDS011;25495;45.948;4.568;2022-07-23T08:40:25;7.20;;;4.97;;
39814;SDS011;25495;45.948;4.568;2022-07-23T08:42:52;9.70;;;6.10;;
39814;SDS011;25495;45.948;4.568;2022-07-23T08:45:19;9.18;;;5.00;;
39814;SDS011;25495;45.948;4.568;2022-07-23T08:47:50;9.85;;;5.22;;
39814;SDS011;25495;45.948;4.568;2022-07-23T08:50:16;5.82;;;4.90;;
39814;SDS011;25495;45.948;4.568;2022-07-23T08:52:42;8.27;;;4.95;;
39814;SDS011;25495;45.948;4.568;2022-07-23T08:55:08;7.25;;;4.50;;
39814;SDS011;25495;45.948;4.568;2022-07-23T08:57:34;7.38;;;4.60;;
39814;SDS011;25495;45.948;4.568;2022-07-23T09:00:00;8.80;;;5.00;;
39814;SDS011;25495;45.948;4.568;2022-07-23T09:02:26;7.57;;;4.57;;
39814;SDS011;25495;45.948;4.568;2022-07-23T09:04:52;6.03;;;4.35;;
39814;SDS011;25495;45.948;4.568;2022-07-23T09:07:18;7.13;;;3.97;;
39814;SDS011;25495;45.948;4.568;2022-07-23T09:09:44;6.70;;;4.30;;
39814;SDS011;25495;45.948;4.568;2022-07-23T09:12:10;8.30;;;4.70;;
39814;SDS011;25495;45.948;4.568;2022-07-23T09:14:42;10.00;;;4.63;;
39814;SDS011;25495;45.948;4.568;2022-07-23T09:17:13;5.57;;;3.92;;
39814;SDS011;25495;45.948;4.568;2022-07-23T09:19:41;5.93;;;4.30;;
39814;SDS011;25495;45.948;4.568;2022-07-23T09:25:10;8.63;;;4.70;;
39814;SDS011;25495;45.948;4.568;2022-07-23T09:27:52;11.60;;;4.43;;
39814;SDS011;25495;45.948;4.568;2022-07-23T09:30:29;5.55;;;4.30;;
39814;SDS011;25495;45.948;4.568;2022-07-23T09:33:12;8.52;;;4.13;;
39814;SDS011;25495;45.948;4.568;2022-07-23T09:38:17;5.53;;;3.78;;
39814;SDS011;25495;45.948;4.568;2022-07-23T09:40:44;6.50;;;3.85;;
39814;SDS011;25495;45.948;4.568;2022-07-23T09:43:11;6.45;;;3.85;;
39814;SDS011;25495;45.948;4.568;2022-07-23T09:45:52;5.93;;;3.55;;
39814;SDS011;25495;45.948;4.568;2022-07-23T09:48:17;8.45;;;4.03;;
39814;SDS011;25495;45.948;4.568;2022-07-23T09:50:44;5.15;;;3.75;;
39814;SDS011;25495;45.948;4.568;2022-07-23T09:53:23;5.13;;;3.72;;
39814;SDS011;25495;45.948;4.568;2022-07-23T09:55:51;5.63;;;4.00;;
39814;SDS011;25495;45.948;4.568;2022-07-23T09:58:18;6.88;;;4.28;;
39814;SDS011;25495;45.948;4.568;2022-07-23T10:00:47;5.10;;;3.90;;
39814;SDS011;25495;45.948;4.568;2022-07-23T10:03:14;5.05;;;3.47;;
39814;SDS011;25495;45.948;4.568;2022-07-23T10:05:42;6.13;;;4.25;;
39814;SDS011;25495;45.948;4.568;2022-07-23T10:08:11;6.32;;;3.85;;
39814;SDS011;25495;45.948;4.568;2022-07-23T10:10:39;4.80;;;3.33;;
39814;SDS011;25495;45.948;4.568;2022-07-23T10:13:05;8.32;;;4.35;;
39814;SDS011;25495;45.948;4.568;2022-07-23T10:15:50;6.15;;;3.92;;
39814;SDS011;25495;45.948;4.568;2022-07-23T10:18:16;7.45;;;3.92;;
39814;SDS011;25495;45.948;4.568;2022-07-23T10:20:42;7.05;;;3.78;;
39814;SDS011;25495;45.948;4.568;2022-07-23T10:31:26;5.53;;;4.03;;
39814;SDS011;25495;45.948;4.568;2022-07-23T10:37:21;4.53;;;3.80;;
39814;SDS011;25495;45.948;4.568;2022-07-23T10:42:40;5.30;;;3.60;;
39814;SDS011;25495;45.948;4.568;2022-07-23T10:47:54;6.50;;;3.92;;
39814;SDS011;25495;45.948;4.568;2022-07-23T10:50:22;6.95;;;3.88;;
39814;SDS011;25495;45.948;4.568;2022-07-23T10:53:08;7.07;;;3.45;;
39814;SDS011;25495;45.948;4.568;2022-07-23T10:55:42;6.53;;;3.95;;
39814;SDS011;25495;45.948;4.568;2022-07-23T10:58:09;4.63;;;3.58;;
39814;SDS011;25495;45.948;4.568;2022-07-23T11:00:36;7.72;;;4.22;;
39814;SDS011;25495;45.948;4.568;2022-07-23T11:03:03;7.45;;;3.60;;
39814;SDS011;25495;45.948;4.568;2022-07-23T11:05:49;5.50;;;3.50;;
39814;SDS011;25495;45.948;4.568;2022-07-23T11:08:16;5.35;;;3.88;;
39814;SDS011;25495;45.948;4.568;2022-07-23T11:34:27;6.28;;;4.00;;
39814;SDS011;25495;45.948;4.568;2022-07-23T11:36:53;5.05;;;3.67;;
39814;SDS011;25495;45.948;4.568;2022-07-23T11:39:20;5.93;;;4.10;;
39814;SDS011;25495;45.948;4.568;2022-07-23T11:41:49;10.57;;;4.00;;
39814;SDS011;25495;45.948;4.568;2022-07-23T11:46:57;5.72;;;3.88;;
39814;SDS011;25495;45.948;4.568;2022-07-23T11:49:25;4.35;;;3.30;;
39814;SDS011;25495;45.948;4.568;2022-07-23T11:54:47;7.40;;;4.43;;
39814;SDS011;25495;45.948;4.568;2022-07-23T11:57:14;7.22;;;3.78;;
39814;SDS011;25495;45.948;4.568;2022-07-23T11:59:41;5.93;;;3.85;;
39814;SDS011;25495;45.948;4.568;2022-07-23T12:02:10;6.97;;;4.32;;
39814;SDS011;25495;45.948;4.568;2022-07-23T12:04:43;5.97;;;4.20;;
39814;SDS011;25495;45.948;4.568;2022-07-23T12:09:59;10.27;;;3.88;;
39814;SDS011;25495;45.948;4.568;2022-07-23T12:15:00;8.18;;;3.95;;
39814;SDS011;25495;45.948;4.568;2022-07-23T12:17:34;9.60;;;3.97;;
39814;SDS011;25495;45.948;4.568;2022-07-23T12:20:02;10.70;;;4.55;;
39814;SDS011;25495;45.948;4.568;2022-07-23T12:22:37;7.33;;;4.47;;
39814;SDS011;25495;45.948;4.568;2022-07-23T12:25:09;4.30;;;3.83;;
39814;SDS011;25495;45.948;4.568;2022-07-23T12:27:37;11.93;;;4.15;;
39814;SDS011;25495;45.948;4.568;2022-07-23T12:32:50;5.25;;;3.95;;
39814;SDS011;25495;45.948;4.568;2022-07-23T12:35:17;6.65;;;4.13;;
39814;SDS011;25495;45.948;4.568;2022-07-23T12:37:45;9.30;;;4.43;;
39814;SDS011;25495;45.948;4.568;2022-07-23T12:42:55;5.40;;;4.15;;
39814;SDS011;25495;45.948;4.568;2022-07-23T12:45:25;6.95;;;4.07;;
39814;SDS011;25495;45.948;4.568;2022-07-23T12:47:57;4.93;;;3.78;;
39814;SDS011;25495;45.948;4.568;2022-07-23T12:50:44;7.13;;;4.03;;
39814;SDS011;25495;45.948;4.568;2022-07-23T12:55:56;5.65;;;4.15;;
39814;SDS011;25495;45.948;4.568;2022-07-23T12:58:24;7.35;;;4.15;;
39814;SDS011;25495;45.948;4.568;2022-07-23T13:03:26;5.88;;;3.97;;
39814;SDS011;25495;45.948;4.568;2022-07-23T13:06:07;7.20;;;4.00;;
39814;SDS011;25495;45.948;4.568;2022-07-23T13:08:35;6.20;;;3.83;;
39814;SDS011;25495;45.948;4.568;2022-07-23T13:11:02;6.75;;;3.75;;
39814;SDS011;25495;45.948;4.568;2022-07-23T13:13:30;5.78;;;3.45;;
39814;SDS011;25495;45.948;4.568;2022-07-23T13:15:57;4.80;;;2.90;;
39814;SDS011;25495;45.948;4.568;2022-07-23T13:18:24;4.35;;;3.33;;
39814;SDS011;25495;45.948;4.568;2022-07-23T13:20:51;4.97;;;3.33;;
39814;SDS011;25495;45.948;4.568;2022-07-23T13:23:18;6.45;;;3.95;;
39814;SDS011;25495;45.948;4.568;2022-07-23T13:25:45;5.38;;;3.40;;
39814;SDS011;25495;45.948;4.568;2022-07-23T13:28:12;11.93;;;4.47;;
39814;SDS011;25495;45.948;4.568;2022-07-23T13:30:39;5.00;;;3.90;;
39814;SDS011;25495;45.948;4.568;2022-07-23T13:33:06;6.20;;;3.60;;
39814;SDS011;25495;45.948;4.568;2022-07-23T13:35:32;8.13;;;3.75;;
39814;SDS011;25495;45.948;4.568;2022-07-23T13:38:00;5.90;;;3.60;;
39814;SDS011;25495;45.948;4.568;2022-07-23T13:40:26;7.65;;;3.70;;
39814;SDS011;25495;45.948;4.568;2022-07-23T13:42:52;5.47;;;3.58;;
39814;SDS011;25495;45.948;4.568;2022-07-23T13:45:18;8.27;;;3.85;;
39814;SDS011;25495;45.948;4.568;2022-07-23T13:47:43;6.80;;;4.30;;
39814;SDS011;25495;45.948;4.568;2022-07-23T13:50:09;4.20;;;3.65;;
39814;SDS011;25495;45.948;4.568;2022-07-23T13:52:36;8.95;;;3.90;;
39814;SDS011;25495;45.948;4.568;2022-07-23T13:55:02;5.32;;;4.10;;
39814;SDS011;25495;45.948;4.568;2022-07-23T13:57:30;4.07;;;3.60;;
39814;SDS011;25495;45.948;4.568;2022-07-23T13:59:56;6.72;;;4.03;;
39814;SDS011;25495;45.948;4.568;2022-07-23T14:02:23;6.05;;;3.72;;
39814;SDS011;25495;45.948;4.568;2022-07-23T14:04:50;4.65;;;3.30;;
39814;SDS011;25495;45.948;4.568;2022-07-23T14:07:17;7.13;;;3.28;;
39814;SDS011;25495;45.948;4.568;2022-07-23T14:09:43;7.25;;;3.92;;
39814;SDS011;25495;45.948;4.568;2022-07-23T14:12:09;4.90;;;3.53;;
39814;SDS011;25495;45.948;4.568;2022-07-23T14:14:35;4.32;;;3.72;;
39814;SDS011;25495;45.948;4.568;2022-07-23T14:17:01;5.10;;;3.83;;
39814;SDS011;25495;45.948;4.568;2022-07-23T14:19:26;5.65;;;3.47;;
39814;SDS011;25495;45.948;4.568;2022-07-23T14:21:52;4.53;;;4.13;;
39814;SDS011;25495;45.948;4.568;2022-07-23T14:24:18;7.13;;;4.07;;
39814;SDS011;25495;45.948;4.568;2022-07-23T14:26:44;4.55;;;3.50;;
39814;SDS011;25495;45.948;4.568;2022-07-23T14:29:11;5.32;;;3.85;;
39814;SDS011;25495;45.948;4.568;2022-07-23T14:31:37;4.95;;;3.80;;
39814;SDS011;25495;45.948;4.568;2022-07-23T14:34:03;5.18;;;3.75;;
39814;SDS011;25495;45.948;4.568;2022-07-23T14:36:29;5.22;;;3.78;;
39814;SDS011;25495;45.948;4.568;2022-07-23T14:38:55;7.45;;;3.90;;
39814;SDS011;25495;45.948;4.568;2022-07-23T14:41:20;5.93;;;3.83;;
39814;SDS011;25495;45.948;4.568;2022-07-23T14:43:46;5.85;;;3.22;;
39814;SDS011;25495;45.948;4.568;2022-07-23T14:46:12;4.57;;;3.50;;
39814;SDS011;25495;45.948;4.568;2022-07-23T14:48:38;4.93;;;3.42;;
39814;SDS011;25495;45.948;4.568;2022-07-23T14:51:04;4.05;;;3.28;;
39814;SDS011;25495;45.948;4.568;2022-07-23T14:53:30;9.05;;;4.28;;
39814;SDS011;25495;45.948;4.568;2022-07-23T14:55:56;4.78;;;3.83;;
39814;SDS011;25495;45.948;4.568;2022-07-23T14:58:25;7.95;;;4.10;;
39814;SDS011;25495;45.948;4.568;2022-07-23T15:00:51;5.40;;;3.70;;
39814;SDS011;25495;45.948;4.568;2022-07-23T15:03:17;5.82;;;3.95;;
39814;SDS011;25495;45.948;4.568;2022-07-23T15:05:43;6.10;;;3.70;;
39814;SDS011;25495;45.948;4.568;2022-07-23T15:08:08;4.70;;;3.60;;
39814;SDS011;25495;45.948;4.568;2022-07-23T15:10:34;5.10;;;3.40;;
39814;SDS011;25495;45.948;4.568;2022-07-23T15:13:00;6.03;;;3.38;;
39814;SDS011;25495;45.948;4.568;2022-07-23T15:15:26;5.45;;;3.42;;
39814;SDS011;25495;45.948;4.568;2022-07-23T15:17:51;6.38;;;4.00;;
39814;SDS011;25495;45.948;4.568;2022-07-23T15:20:17;5.53;;;3.75;;
39814;SDS011;25495;45.948;4.568;2022-07-23T15:22:43;4.28;;;3.40;;
39814;SDS011;25495;45.948;4.568;2022-07-23T15:25:10;5.72;;;3.42;;
39814;SDS011;25495;45.948;4.568;2022-07-23T15:27:36;3.67;;;2.97;;
39814;SDS011;25495;45.948;4.568;2022-07-23T15:30:03;4.57;;;3.30;;
39814;SDS011;25495;45.948;4.568;2022-07-23T15:32:31;4.80;;;3.35;;
39814;SDS011;25495;45.948;4.568;2022-07-23T15:34:57;4.78;;;2.95;;
39814;SDS011;25495;45.948;4.568;2022-07-23T15:37:23;5.07;;;3.42;;
39814;SDS011;25495;45.948;4.568;2022-07-23T15:39:49;3.95;;;3.00;;
39814;SDS011;25495;45.948;4.568;2022-07-23T15:42:15;4.80;;;3.20;;
39814;SDS011;25495;45.948;4.568;2022-07-23T15:44:41;5.03;;;3.47;;
39814;SDS011;25495;45.948;4.568;2022-07-23T15:47:11;5.80;;;4.10;;
39814;SDS011;25495;45.948;4.568;2022-07-23T15:49:41;6.57;;;3.20;;
39814;SDS011;25495;45.948;4.568;2022-07-23T15:52:07;4.32;;;2.95;;
39814;SDS011;25495;45.948;4.568;2022-07-23T15:54:37;5.50;;;3.53;;